Flight Track Log - Related Links

Times and Time Zones

All times are in EDT time to prevent confusion due to time zone crossing. See the ACA1749 flight status page for this flight to view local times or setup timezone preferences in your user account.

Time Position Orientation Groundspeed Altitude Reporting Facility
EDT Latitude Longitude Course Direction KTS MPH feet Rate Location/Type
Fri 09:24:00 AM 23.2726 -82.0599 46° Northeast  Level FlightAware Approximate
Fri 09:24:33 AM 23.1175 -82.2244 46° Northeast 455 524 6,600  Level Miami Center
Fri 09:25:00 AM 23.3486 -81.9731 46° Northeast  Level FlightAware Approximate
Fri 09:25:34 AM 23.1742 -82.1636 45° Northeast 364 419 9,400  Level Miami Center
Fri 09:26:00 AM 23.4230 -81.8846 48° Northeast  Level FlightAware Approximate
Fri 09:26:34 AM 23.2347 -82.0961 46° Northeast 324 373 11,000  Level Miami Center
Fri 09:27:00 AM 23.4961 -81.7947 48° Northeast  Level FlightAware Approximate
Fri 09:27:34 AM 23.3022 -82.0153 48° Northeast 331 381 13,200  Level Miami Center
Fri 09:28:00 AM 23.5691 -81.7048 48° Northeast  Level FlightAware Approximate
Fri 09:28:34 AM 23.3739 -81.9367 45° Northeast 343 395 15,600  Level Miami Center
Fri 09:29:00 AM 23.6439 -81.6165 46° Northeast  Level FlightAware Approximate
Fri 09:29:33 AM 23.4433 -81.8558 47° Northeast 357 411 17,600  Level Miami Center
Fri 09:30:34 AM 23.5192 -81.7725 45° Northeast 363 418 19,200 1,636 Climbing Miami Center
Fri 09:31:34 AM 23.6164 -81.7356 19° North 363 418 20,900 1,650 Climbing Miami Center
Fri 09:32:34 AM 23.7233 -81.7261 North 357 411 22,500 1,500 Climbing Miami Center
Fri 09:33:34 AM 23.8281 -81.7119 North 394 453 23,900 750 Climbing Miami Center
Fri 09:34:34 AM 23.9414 -81.7003 North 404 465 24,000 200 Climbing Miami Center
Fri 09:35:34 AM 24.0544 -81.6889 North 409 471 24,300 958 Climbing Miami Center
Fri 09:36:33 AM 24.1675 -81.6794 North 409 471 25,900 1,450 Climbing Miami Center
Fri 09:37:34 AM 24.2828 -81.6703 North 409 471 27,200 1,190 Climbing Miami Center
Fri 09:38:34 AM 24.4061 -81.6614 North 404 465 28,300 1,100 Climbing Miami Center
Fri 09:39:34 AM 24.5172 -81.6519 North 404 465 29,400 1,210 Climbing Miami Center
Fri 09:40:33 AM 24.6342 -81.6472 North 423 487 30,700 1,200 Climbing Miami Center
Fri 09:41:34 AM 24.7558 -81.6339 North 430 495 31,800 1,140 Climbing Miami Center
Fri 09:42:34 AM 24.8667 -81.6267 North 416 479 33,000 600 Climbing Miami Center
Fri 09:43:34 AM 24.9922 -81.6222 North 406 467 33,000  Level Miami Center
Fri 09:44:34 AM 25.1033 -81.6083 North 406 467 33,000  Level Miami Center
Fri 09:45:34 AM 25.2183 -81.6036 North 406 467 33,000  Level Miami Center
Fri 09:46:34 AM 25.3314 -81.5919 North 406 467 33,000  Level Miami Center
Fri 09:47:33 AM 25.4464 -81.5850 North 406 467 33,000  Level Miami Center
Fri 09:48:34 AM 25.5636 -81.5756 North 406 467 33,000  Level Miami Center
Fri 09:49:34 AM 25.6789 -81.5639 North 406 467 33,000  Level Miami Center
Fri 09:50:34 AM 25.7961 -81.5569 North 411 473 33,000  Level Miami Center
Fri 09:51:34 AM 25.9133 -81.5478 North 411 473 33,000  Level Miami Center
Fri 09:52:34 AM 26.0306 -81.5386 North 418 481 33,000  Level Miami Center
Fri 09:53:34 AM 26.1500 -81.5294 North 418 481 33,000  Level Miami Center
Fri 09:54:34 AM 26.2672 -81.5178 North 423 487 33,000  Level Miami Center
Fri 09:55:34 AM 26.3844 -81.5108 North 423 487 33,000  Level Miami Center
Fri 09:56:34 AM 26.5017 -81.4992 North 423 487 33,000  Level Miami Center
Fri 09:57:34 AM 26.6061 -81.4917 North 423 487 33,000  Level Miami Center
Fri 09:58:34 AM 26.7233 -81.4822 North 423 487 33,000  Level Miami Center
Fri 09:59:34 AM 26.8511 -81.4733 North 423 487 33,000  Level Miami Center
Fri 10:00:34 AM 26.9700 -81.4733 360° North 423 487 33,000  Level Miami Center
Fri 10:01:34 AM 27.0911 -81.4736 360° North 417 480 33,000  Level Miami Center
Fri 10:02:34 AM 27.1975 -81.4756 359° North 422 486 33,000  Level Miami Center
Fri 10:03:34 AM 27.3125 -81.4753 360° North 422 486 33,000  Level Miami Center
Fri 10:04:34 AM 27.4417 -81.4783 359° North 422 486 33,000  Level Miami Center
Fri 10:05:34 AM 27.5606 -81.4783 360° North 422 486 33,000  Level Miami Center
Fri 10:06:34 AM 27.6775 -81.4808 359° North 422 486 33,000  Level Miami Center
Fri 10:07:34 AM 27.7839 -81.4828 359° North 416 479 33,000  Level Miami Center
Fri 10:08:34 AM 27.9006 -81.4828 360° North 423 487 33,000  Level Miami Center
Fri 10:09:34 AM 28.0194 -81.4853 359° North 423 487 33,000  Level Miami Center
Fri 10:11:39 AM 28.2800 -81.4831 360° North 418 481 33,000  Level Jacksonville Center
Fri 10:12:39 AM 28.3967 -81.4839 360° North 418 481 33,000  Level Jacksonville Center
Fri 10:13:39 AM 28.5178 -81.4917 357° North 424 488 33,000  Level Jacksonville Center
Fri 10:14:39 AM 28.6328 -81.4922 360° North 417 480 33,000  Level Jacksonville Center
Fri 10:15:39 AM 28.7494 -81.4931 360° North 417 480 33,000  Level Jacksonville Center
Fri 10:16:39 AM 28.8644 -81.4939 360° North 417 480 33,000  Level Jacksonville Center
Fri 10:17:39 AM 28.9792 -81.4969 359° North 417 480 33,000  Level Jacksonville Center
Fri 10:18:39 AM 29.0961 -81.5000 359° North 417 480 33,000  Level Jacksonville Center
Fri 10:19:39 AM 29.2111 -81.5081 357° North 417 480 33,000  Level Jacksonville Center
Fri 10:20:39 AM 29.3114 -81.5136 357° North 412 474 33,000  Level Jacksonville Center
Fri 10:21:39 AM 29.4281 -81.5119 North 412 474 33,000  Level Jacksonville Center
Fri 10:22:39 AM 29.5472 -81.5128 360° North 412 474 33,000  Level Jacksonville Center
Fri 10:23:39 AM 29.6661 -81.5086 North 417 480 33,000 -100 Level Jacksonville Center
Fri 10:24:39 AM 29.7872 -81.5117 359° North 423 487 32,800 -650 Descending Jacksonville Center
Fri 10:25:39 AM 29.8978 -81.5103 North 412 474 31,700 -900 Descending Jacksonville Center
Fri 10:26:39 AM 30.0086 -81.5111 360° North 402 463 31,000 -350 Descending Jacksonville Center
Fri 10:27:39 AM 30.1256 -81.5117 360° North 402 463 31,000  Level Jacksonville Center
Fri 10:28:39 AM 30.2444 -81.5100 North 415 478 31,000  Level Jacksonville Center
Fri 10:29:39 AM 30.3781 -81.5033 North 427 491 31,000  Level Jacksonville Center
Fri 10:30:39 AM 30.4967 -81.4822 North 427 491 31,000  Level Jacksonville Center
Fri 10:31:39 AM 30.6175 -81.4636 North 427 491 31,000  Level Jacksonville Center
Fri 10:32:39 AM 30.7364 -81.4425 North 427 491 31,000  Level Jacksonville Center
Fri 10:33:39 AM 30.8553 -81.4236 North 427 491 31,000  Level Jacksonville Center
Fri 10:34:39 AM 30.9739 -81.4050 North 427 491 31,000  Level Jacksonville Center
Fri 10:35:39 AM 31.0928 -81.3836 North 427 491 31,000  Level Jacksonville Center
Fri 10:36:39 AM 31.2094 -81.3647 North 418 481 31,000  Level Jacksonville Center
Fri 10:37:39 AM 31.3261 -81.3433 North 430 495 31,000  Level Jacksonville Center
Fri 10:38:39 AM 31.4428 -81.3194 10° North 422 486 31,000  Level Jacksonville Center
Fri 10:39:39 AM 31.5636 -81.3003 North 427 491 31,000  Level Jacksonville Center
Fri 10:40:39 AM 31.6697 -81.2814 North 427 491 31,000  Level Jacksonville Center
Fri 10:41:39 AM 31.7989 -81.2597 North 427 491 31,000  Level Jacksonville Center
Fri 10:42:39 AM 31.9197 -81.2381 North 427 491 31,000  Level Jacksonville Center
Fri 10:43:39 AM 32.0364 -81.2186 North 421 484 31,000  Level Jacksonville Center
Fri 10:44:39 AM 32.1511 -81.2044 North 421 484 31,000  Level Jacksonville Center
Fri 10:45:39 AM 32.2661 -81.2144 356° North 412 474 31,000  Level Jacksonville Center
Fri 10:46:39 AM 32.3811 -81.2272 355° North 412 474 31,000  Level Jacksonville Center
Fri 10:47:39 AM 32.4939 -81.2422 354° North 414 476 31,000  Level Jacksonville Center
Fri 10:48:39 AM 32.5986 -81.2578 353° North 414 476 31,000  Level Jacksonville Center
Fri 10:49:39 AM 32.7239 -81.2678 356° North 414 476 31,000  Level Jacksonville Center
Fri 10:50:39 AM 32.8411 -81.2831 354° North 414 476 31,000  Level Jacksonville Center
Fri 10:51:39 AM 32.9561 -81.2958 355° North 414 476 31,000  Level Jacksonville Center
Fri 10:52:39 AM 33.0564 -81.3089 354° North 409 471 31,000  Level Jacksonville Center
Fri 10:53:39 AM 33.1733 -81.3217 355° North 409 471 31,000  Level Jacksonville Center
Fri 10:54:39 AM 33.2883 -81.3344 355° North 409 471 31,000  Level Jacksonville Center
Fri 10:55:39 AM 33.4033 -81.3475 355° North 409 471 31,000  Level Jacksonville Center
Fri 10:56:39 AM 33.5244 -81.3628 354° North 409 471 31,000  Level Jacksonville Center
Fri 10:57:39 AM 33.6436 -81.3758 355° North 408 470 31,000 -642 Level Jacksonville Center
Fri 10:59:46 AM 33.8850 -81.4014 355° North 408 470 29,000 -642 Descending Atlanta Center
Fri 11:00:46 AM 34.0022 -81.4178 353° North 414 476 29,000  Level Atlanta Center
Fri 11:01:46 AM 34.1236 -81.4342 354° North 426 490 29,000  Level Atlanta Center
Fri 11:02:46 AM 34.2428 -81.4456 355° North 426 490 29,000  Level Atlanta Center
Fri 11:03:46 AM 34.3600 -81.4622 353° North 426 490 29,000  Level Atlanta Center
Fri 11:04:46 AM 34.4792 -81.4786 354° North 426 490 29,000  Level Atlanta Center
Fri 11:05:46 AM 34.5986 -81.4925 355° North 426 490 29,000  Level Atlanta Center
Fri 11:06:46 AM 34.7178 -81.5092 353° North 432 497 29,000  Level Atlanta Center
Fri 11:07:46 AM 34.8244 -81.5261 353° North 426 490 29,000  Level Atlanta Center
Fri 11:08:46 AM 34.9436 -81.5378 355° North 426 490 29,000  Level Atlanta Center
Fri 11:09:46 AM 35.0650 -81.5519 355° North 426 490 29,000  Level Atlanta Center
Fri 11:10:46 AM 35.1864 -81.5661 355° North 432 497 29,000  Level Atlanta Center
Fri 11:11:46 AM 35.3078 -81.5803 355° North 432 497 29,000  Level Atlanta Center
Fri 11:12:46 AM 35.4394 -81.5992 353° North 432 497 29,000  Level Atlanta Center
Fri 11:13:46 AM 35.5608 -81.6161 354° North 432 497 29,000  Level Atlanta Center
Fri 11:14:46 AM 35.6842 -81.6303 355° North 437 503 29,000  Level Atlanta Center
Fri 11:15:46 AM 35.8056 -81.6447 354° North 443 510 29,000  Level Atlanta Center
Fri 11:16:46 AM 35.9122 -81.6594 354° North 443 510 29,000  Level Atlanta Center
Fri 11:17:46 AM 36.0356 -81.6714 356° North 443 510 29,000  Level Atlanta Center
Fri 11:18:46 AM 36.1567 -81.6858 354° North 442 509 29,000  Level Atlanta Center
Fri 11:19:46 AM 36.2781 -81.7003 355° North 442 509 29,000  Level Atlanta Center
Fri 11:20:46 AM 36.4014 -81.7172 354° North 449 517 29,000  Level Atlanta Center
Fri 11:21:46 AM 36.5372 -81.7339 354° North 443 510 29,000  Level Atlanta Center
Fri 11:23:29 AM 36.7469 -81.7606 354° North 448 516 29,000  Level Indianapolis Center
Fri 11:24:30 AM 36.8722 -81.7761 354° North 450 518 29,000  Level Indianapolis Center
Fri 11:25:32 AM 36.9994 -81.7931 354° North 457 526 29,000  Level Indianapolis Center
Fri 11:26:34 AM 37.1247 -81.8103 354° North 454 522 29,000  Level Indianapolis Center
Fri 11:27:35 AM 37.2744 -81.8297 354° North 462 532 29,000  Level Indianapolis Center
Fri 11:28:37 AM 37.4006 -81.8464 354° North 457 526 29,000  Level Indianapolis Center
Fri 11:29:39 AM 37.5253 -81.8631 354° North 452 520 29,000  Level Indianapolis Center
Fri 11:30:40 AM 37.6511 -81.8794 354° North 453 521 29,000  Level Indianapolis Center
Fri 11:31:42 AM 37.7767 -81.8958 354° North 453 521 29,000  Level Indianapolis Center
Fri 11:32:44 AM 37.9150 -81.9128 354° North 453 521 29,000  Level Indianapolis Center
Fri 11:33:45 AM 38.0394 -81.9294 354° North 448 516 29,000  Level Indianapolis Center
Fri 11:34:47 AM 38.1661 -81.9467 354° North 454 522 29,000  Level Indianapolis Center
Fri 11:35:49 AM 38.2906 -81.9631 354° North 447 514 29,000  Level Indianapolis Center
Fri 11:36:50 AM 38.4164 -81.9806 354° North 451 519 29,000  Level Indianapolis Center
Fri 11:37:52 AM 38.5436 -81.9967 354° North 454 522 29,000  Level Indianapolis Center
Fri 11:38:54 AM 38.6714 -82.0150 354° North 457 526 29,000  Level Indianapolis Center
Fri 11:39:55 AM 38.7994 -82.0294 355° North 458 527 29,000  Level Indianapolis Center
Fri 11:40:57 AM 38.9292 -82.0350 358° North 461 531 29,000  Level Indianapolis Center
Fri 11:41:58 AM 39.0586 -82.0414 358° North 462 532 29,000  Level Indianapolis Center
Fri 11:43:00 AM 39.1875 -82.0478 358° North 462 532 29,000  Level Indianapolis Center
Fri 11:44:02 AM 39.3422 -82.0569 357° North 461 531 29,000  Level Indianapolis Center
Fri 11:45:03 AM 39.4706 -82.0639 358° North 460 529 29,000  Level Indianapolis Center
Fri 11:46:05 AM 39.6000 -82.0692 358° North 462 532 29,000 677 Level Indianapolis Center
Fri 11:47:07 AM 39.7189 -82.0744 358° North 462 532 30,400 1,610 Climbing Indianapolis Center
Fri 11:48:08 AM 39.8672 -82.0828 358° North 456 525 32,300 1,610 Climbing Indianapolis Center
Fri 11:49:10 AM 39.9917 -82.0900 357° North 447 514 33,700 1,463 Climbing Indianapolis Center
Fri 11:50:11 AM 40.1147 -82.0956 358° North 440 506 35,300 1,122 Climbing Indianapolis Center
Fri 11:51:13 AM 40.2333 -82.1022 358° North 426 490 36,000 341 Climbing Indianapolis Center
Fri 11:52:14 AM 40.3558 -82.1081 358° North 427 491 36,000  Level Indianapolis Center
Fri 11:52:46 AM 40.4217 -82.1131 357° North 417 480 36,000  Level Cleveland Center
Fri 11:53:46 AM 40.5425 -82.1186 358° North 426 490 36,000  Level Cleveland Center
Fri 11:54:46 AM 40.6633 -82.1242 358° North 426 490 36,000  Level Cleveland Center
Fri 11:55:46 AM 40.7842 -82.1325 357° North 431 496 36,000  Level Cleveland Center
Fri 11:56:46 AM 40.9028 -82.1408 357° North 431 496 36,000  Level Cleveland Center
Fri 11:57:46 AM 41.0236 -82.1436 359° North 431 496 36,000  Level Cleveland Center
Fri 11:58:46 AM 41.1444 -82.1519 357° North 424 488 36,000  Level Cleveland Center
Fri 11:59:46 AM 41.2528 -82.1603 357° North 424 488 36,000  Level Cleveland Center
Fri 12:00:46 PM 41.3739 -82.1519 North 424 488 36,000 -750 Level Cleveland Center
Fri 12:01:46 PM 41.4936 -82.0856 23° Northeast 453 521 34,500 -1,500 Descending Cleveland Center
Fri 12:02:46 PM 41.6258 -82.0053 24° Northeast 459 528 33,000 -750 Descending Cleveland Center
Fri 12:03:46 PM 41.7456 -81.9328 24° Northeast 465 535 33,000  Level Cleveland Center
Fri 12:04:46 PM 41.8675 -81.8603 24° Northeast 465 535 33,000  Level Cleveland Center
Fri 12:05:46 PM 41.9869 -81.7900 24° Northeast 465 535 33,000  Level Cleveland Center
Fri 12:06:46 PM 42.1086 -81.7194 23° Northeast 465 535 33,000 -150 Level Cleveland Center
Fri 12:07:46 PM 42.2239 -81.6458 25° Northeast 464 534 32,700 -800 Descending Cleveland Center
Fri 12:08:46 PM 42.3433 -81.5775 23° Northeast 464 534 31,400 -1,200 Descending Cleveland Center
Fri 12:09:46 PM 42.4481 -81.5117 25° Northeast 458 527 30,300 -1,200 Descending Cleveland Center
Fri 12:10:46 PM 42.5694 -81.4347 25° Northeast 469 540 29,000 -650 Descending Cleveland Center
Fri 12:11:46 PM 42.6747 -81.3147 40° Northeast 480 552 29,000 -50 Level Cleveland Center
Fri 12:12:46 PM 42.7753 -81.1942 41° Northeast 486 559 28,900 -1,548 Descending Cleveland Center
Fri 12:13:50 PM 42.8833 -81.0500 44° Northeast 480 552 25,800 -2,806 Descending Toronto Center
Fri 12:14:50 PM 42.9667 -80.9333 46° Northeast 480 552 23,100 -2,450 Descending Toronto Center
Fri 12:15:50 PM 43.0833 -80.8000 40° Northeast 450 518 20,900 -2,500 Descending Toronto Center
Fri 12:16:50 PM 43.1667 -80.7000 41° Northeast 430 495 18,100 -3,050 Descending Toronto Center
Fri 12:17:50 PM 43.2667 -80.6000 36° Northeast 420 483 14,800 -2,950 Descending Toronto Center
Fri 12:18:50 PM 43.3500 -80.4833 45° Northeast 410 472 12,200 -2,200 Descending Toronto Center
Fri 12:19:50 PM 43.4167 -80.3833 47° Northeast 380 437 10,400 -1,650 Descending Toronto Center
Fri 12:20:50 PM 43.4667 -80.3000 50° Northeast 330 380 8,900 -1,600 Descending Toronto Center
Fri 12:21:50 PM 43.4833 -80.1833 79° East 300 345 7,200 -1,300 Descending Toronto Center
Fri 12:22:50 PM 43.4833 -80.1000 90° East 270 311 6,300 -1,050 Descending Toronto Center
Fri 12:23:50 PM 43.4833 -79.9833 90° East 240 276 5,100 -1,000 Descending Toronto Center
Fri 12:24:50 PM 43.4833 -79.9167 90° East 210 242 4,300 -900 Descending Toronto Center
Fri 12:25:50 PM 43.5167 -79.8333 61° Northeast 210 242 3,300 -650 Descending Toronto Center
Fri 12:26:50 PM 43.5667 -79.8000 26° Northeast 200 230 3,000 -400 Descending Toronto Center
Fri 12:27:50 PM 43.6000 -79.7500 47° Northeast 200 230 2,500 -750 Descending Toronto Center
Fri 12:28:50 PM 43.6333 -79.7000 47° Northeast 170 196 1,500 -1,000 Descending Toronto Center

Login

Don't have an account? Register now (free) for customized features, flight alerts, and more!